Time;durP1;ratioP1;P1;durP2;ratioP2;P2;SDS_P1;SDS_P2;PMS_P1;PMS_P2;Temp;Humidity;BMP_temperature;BMP_pressure;BME280_temperature;BME280_humidity;BME280_pressure;Samples;Min_cycle;Max_cycle;Signal;HPM_P1;HPM_P2
2022/01/01 00:02:20;;;;;;;20.27;11.53;;;12.70;99.90;;;;;;5035246;28;20204;-47
2022/01/01 00:04:47;;;;;;;22.07;11.17;;;12.70;99.90;;;;;;5053302;28;20583;-46
2022/01/01 00:07:14;;;;;;;23.73;11.93;;;12.80;99.90;;;;;;5053278;28;20172;-46
2022/01/01 00:09:41;;;;;;;25.20;13.30;;;12.80;99.90;;;;;;5053052;28;20207;-46
2022/01/01 00:12:07;;;;;;;25.70;13.60;;;12.80;99.90;;;;;;5053292;28;20275;-47
2022/01/01 00:14:34;;;;;;;28.63;13.80;;;12.70;99.90;;;;;;5053199;28;20176;-46
2022/01/01 00:17:00;;;;;;;25.97;15.87;;;12.80;99.90;;;;;;5053416;28;20160;-46
2022/01/01 00:19:25;;;;;;;28.97;17.20;;;12.80;99.90;;;;;;5053153;28;20207;-44
2022/01/01 00:21:51;;;;;;;34.77;20.07;;;12.80;99.90;;;;;;5053091;28;20242;-44
2022/01/01 00:24:17;;;;;;;32.03;20.47;;;12.80;99.90;;;;;;5053577;28;20543;-43
2022/01/01 00:30:06;;;;;;;37.53;22.63;;;12.80;99.90;;;;;;5053937;28;20686;-43
2022/01/01 00:32:35;;;;;;;40.60;22.90;;;12.80;99.90;;;;;;5053146;28;20612;-42
2022/01/01 00:35:02;;;;;;;42.07;24.40;;;12.80;99.90;;;;;;5053836;28;20180;-43
2022/01/01 00:37:29;;;;;;;39.40;24.67;;;12.80;99.90;;;;;;5053668;28;20247;-44
2022/01/01 00:39:55;;;;;;;37.13;24.07;;;12.80;99.90;;;;;;5035448;28;20195;-42
2022/01/01 00:42:25;;;;;;;35.03;22.07;;;12.80;99.90;;;;;;5053208;28;20200;-44
2022/01/01 00:44:52;;;;;;;37.73;23.63;;;12.80;99.90;;;;;;5053508;28;20574;-45
2022/01/01 00:47:18;;;;;;;34.27;20.47;;;12.80;99.90;;;;;;5052979;28;20267;-43
2022/01/01 00:49:45;;;;;;;37.40;20.10;;;12.80;99.90;;;;;;5035515;28;20184;-43
2022/01/01 00:52:16;;;;;;;27.63;17.90;;;12.80;99.90;;;;;;5053268;28;20223;-44
2022/01/01 00:54:43;;;;;;;34.57;18.90;;;12.80;99.90;;;;;;5036363;28;20188;-43
2022/01/01 00:57:09;;;;;;;29.07;17.77;;;12.80;99.90;;;;;;5053624;28;20672;-44
2022/01/01 00:59:34;;;;;;;32.90;16.33;;;12.80;99.90;;;;;;5053094;28;20265;-44
2022/01/01 01:02:00;;;;;;;29.10;15.67;;;12.80;99.90;;;;;;5054528;28;20195;-44
2022/01/01 01:04:26;;;;;;;27.47;15.57;;;12.80;99.90;;;;;;5056592;28;20563;-43
2022/01/01 01:06:52;;;;;;;26.70;13.80;;;12.80;99.90;;;;;;5056766;28;20176;-45
2022/01/01 01:09:18;;;;;;;27.63;14.17;;;12.80;99.90;;;;;;5056555;28;20180;-45
2022/01/01 01:11:47;;;;;;;27.57;15.17;;;12.70;99.90;;;;;;5056296;28;20667;-44
2022/01/01 01:14:22;;;;;;;30.57;14.10;;;12.80;99.90;;;;;;5055996;28;20188;-43
2022/01/01 01:16:52;;;;;;;28.67;14.77;;;12.80;99.90;;;;;;5056407;28;20172;-42
2022/01/01 01:19:18;;;;;;;25.63;14.03;;;12.70;99.90;;;;;;5056608;28;20256;-45
2022/01/01 01:21:44;;;;;;;23.13;13.47;;;12.70;99.90;;;;;;5038541;28;20191;-48
2022/01/01 01:26:49;;;;;;;24.17;13.27;;;12.70;99.90;;;;;;4864411;26;20224;-46
2022/01/01 01:29:15;;;;;;;29.70;13.57;;;12.70;99.90;;;;;;5037616;28;20550;-45
2022/01/01 01:31:41;;;;;;;20.77;11.97;;;12.70;99.90;;;;;;5039006;28;20256;-45
2022/01/01 01:34:06;;;;;;;23.37;11.53;;;12.60;99.90;;;;;;5056855;28;20229;-47
2022/01/01 01:36:32;;;;;;;22.50;12.57;;;12.60;99.90;;;;;;5057050;28;20188;-48
2022/01/01 01:38:58;;;;;;;23.80;12.20;;;12.60;99.90;;;;;;5057359;28;20182;-45
2022/01/01 01:41:23;;;;;;;21.30;11.23;;;12.60;99.90;;;;;;5039500;28;20207;-48
2022/01/01 01:43:52;;;;;;;24.53;11.60;;;12.70;99.90;;;;;;5056911;28;20196;-44
2022/01/01 01:46:18;;;;;;;20.67;11.80;;;12.60;99.90;;;;;;5056225;28;20172;-45
2022/01/01 01:48:46;;;;;;;21.37;10.63;;;12.60;99.90;;;;;;5056123;28;20538;-43
2022/01/01 01:51:11;;;;;;;22.00;10.13;;;12.60;99.90;;;;;;5037868;28;20184;-44
2022/01/01 01:53:38;;;;;;;18.80;10.57;;;12.60;99.90;;;;;;5056069;28;20222;-45
2022/01/01 01:56:04;;;;;;;24.07;10.77;;;12.60;99.90;;;;;;5055596;28;20180;-44
2022/01/01 01:58:30;;;;;;;25.33;10.27;;;12.60;99.90;;;;;;5055399;28;20666;-45
2022/01/01 02:03:31;;;;;;;18.30;9.80;;;12.60;99.90;;;;;;5056019;28;20192;-45
2022/01/01 02:05:58;;;;;;;26.20;10.10;;;12.60;99.90;;;;;;5054974;28;20705;-46
2022/01/01 02:08:24;;;;;;;20.53;10.17;;;12.60;99.90;;;;;;5038306;28;20180;-44
2022/01/01 02:10:52;;;;;;;17.00;9.07;;;12.60;99.90;;;;;;5055432;28;20256;-46
2022/01/01 02:13:36;;;;;;;22.23;10.83;;;12.60;99.90;;;;;;5054530;28;20192;-47
2022/01/01 02:16:28;;;;;;;19.77;10.20;;;12.60;99.90;;;;;;5055185;28;20172;-45
2022/01/01 02:18:55;;;;;;;23.67;11.23;;;12.60;99.90;;;;;;5036863;28;20180;-46
2022/01/01 02:21:22;;;;;;;19.07;9.27;;;12.60;99.90;;;;;;5055076;28;20606;-46
2022/01/01 02:23:48;;;;;;;21.17;10.03;;;12.60;99.90;;;;;;5020210;28;20307;-46
2022/01/01 02:26:16;;;;;;;19.83;10.03;;;12.60;99.90;;;;;;5054471;28;20639;-45
2022/01/01 02:28:44;;;;;;;25.30;11.53;;;12.60;99.90;;;;;;5054671;28;20172;-45
2022/01/01 02:31:10;;;;;;;19.17;10.70;;;12.60;99.90;;;;;;5037477;28;20195;-46
2022/01/01 02:33:37;;;;;;;22.60;11.63;;;12.70;99.90;;;;;;5054476;28;20610;-45
2022/01/01 02:36:04;;;;;;;25.13;11.73;;;12.60;99.90;;;;;;5036836;28;20243;-47
2022/01/01 02:38:32;;;;;;;23.23;12.80;;;12.60;99.90;;;;;;5054501;28;20651;-47
2022/01/01 02:40:58;;;;;;;25.83;12.43;;;12.60;99.90;;;;;;5054983;28;20732;-45
2022/01/01 02:43:25;;;;;;;24.67;12.10;;;12.60;99.90;;;;;;5055062;28;20299;-47
2022/01/01 02:45:51;;;;;;;20.70;12.83;;;12.60;99.90;;;;;;5055377;28;20184;-48
2022/01/01 02:48:16;;;;;;;21.37;12.73;;;12.70;99.90;;;;;;5036867;28;20194;-49
2022/01/01 02:50:42;;;;;;;23.60;12.40;;;12.60;99.90;;;;;;5036657;28;20276;-44
2022/01/01 02:53:15;;;;;;;26.43;13.57;;;12.60;99.90;;;;;;5054575;28;20203;-46
2022/01/01 02:55:43;;;;;;;20.03;12.60;;;12.60;99.90;;;;;;5054921;28;20192;-45
2022/01/01 02:58:12;;;;;;;24.67;12.70;;;12.60;99.90;;;;;;5054903;28;20208;-45
2022/01/01 03:00:39;;;;;;;24.03;12.00;;;12.60;99.90;;;;;;5054401;28;20218;-46
2022/01/01 03:03:05;;;;;;;26.33;12.47;;;12.60;99.90;;;;;;5056742;28;20197;-47
2022/01/01 03:05:31;;;;;;;26.93;12.83;;;12.50;99.90;;;;;;5054826;28;20175;-46
2022/01/01 03:07:58;;;;;;;19.27;10.87;;;12.50;99.90;;;;;;5036013;28;20180;-46
2022/01/01 03:10:24;;;;;;;23.13;11.60;;;12.50;99.90;;;;;;5053822;28;20229;-45
2022/01/01 03:12:49;;;;;;;25.90;11.90;;;12.50;99.90;;;;;;5035907;28;20207;-47
2022/01/01 03:15:15;;;;;;;18.30;10.30;;;12.40;99.90;;;;;;5054110;28;20181;-47
2022/01/01 03:17:41;;;;;;;23.43;10.90;;;12.40;99.90;;;;;;5054311;28;20216;-47
2022/01/01 03:20:07;;;;;;;18.50;10.00;;;12.40;99.90;;;;;;5054320;28;20204;-46
2022/01/01 03:22:33;;;;;;;25.97;11.20;;;12.40;99.90;;;;;;5054580;28;20567;-45
2022/01/01 03:24:58;;;;;;;23.93;10.03;;;12.30;99.90;;;;;;5053887;28;20196;-45
2022/01/01 03:27:24;;;;;;;19.20;10.87;;;12.30;99.90;;;;;;5055008;28;20161;-46
2022/01/01 03:29:49;;;;;;;19.37;9.50;;;12.30;99.90;;;;;;5055175;28;20176;-45
2022/01/01 03:32:15;;;;;;;22.07;9.17;;;12.30;99.90;;;;;;5054895;28;20203;-46
2022/01/01 03:34:42;;;;;;;25.90;9.53;;;12.30;99.90;;;;;;5035995;28;20183;-45
2022/01/01 03:37:07;;;;;;;15.13;8.27;;;12.30;99.90;;;;;;5053896;28;20180;-46
2022/01/01 03:39:33;;;;;;;17.07;7.90;;;12.30;99.90;;;;;;5053928;28;20203;-45
2022/01/01 03:41:59;;;;;;;18.10;7.93;;;12.30;99.90;;;;;;5053676;28;20254;-47
2022/01/01 03:44:24;;;;;;;14.20;6.63;;;12.30;99.90;;;;;;5053890;28;20169;-46
2022/01/01 03:46:50;;;;;;;19.17;7.50;;;12.20;99.90;;;;;;5053973;28;20644;-46
2022/01/01 03:49:16;;;;;;;15.77;7.63;;;12.30;99.90;;;;;;5054717;28;20152;-46
2022/01/01 03:51:42;;;;;;;17.60;7.33;;;12.30;99.90;;;;;;5053712;28;20184;-47
2022/01/01 03:54:08;;;;;;;18.33;7.20;;;12.30;99.90;;;;;;5019888;28;20171;-46
2022/01/01 03:56:36;;;;;;;12.27;6.37;;;12.30;99.90;;;;;;5036889;28;20191;-46
2022/01/01 03:59:02;;;;;;;12.37;6.30;;;12.30;99.90;;;;;;5053449;28;20186;-47
2022/01/01 04:01:28;;;;;;;13.27;6.17;;;12.30;99.90;;;;;;5053335;28;20258;-46
2022/01/01 04:03:54;;;;;;;17.83;6.80;;;12.20;99.90;;;;;;5053088;28;20180;-45
2022/01/01 04:06:19;;;;;;;14.53;6.00;;;12.20;99.90;;;;;;5053464;28;20176;-47
2022/01/01 04:08:45;;;;;;;12.00;5.43;;;12.20;99.90;;;;;;5053143;28;20177;-46
2022/01/01 04:11:10;;;;;;;12.87;5.23;;;12.20;99.90;;;;;;5053524;28;20259;-47
2022/01/01 04:13:36;;;;;;;14.03;5.67;;;12.20;99.90;;;;;;5052864;28;20206;-46
2022/01/01 04:16:02;;;;;;;14.93;6.00;;;12.20;99.90;;;;;;5035271;28;20180;-45
2022/01/01 04:18:38;;;;;;;15.97;6.03;;;12.10;99.90;;;;;;5053180;28;20192;-46
2022/01/01 04:21:05;;;;;;;15.17;5.60;;;12.10;99.90;;;;;;5053493;28;20187;-46
2022/01/01 04:23:31;;;;;;;9.33;4.80;;;12.10;99.90;;;;;;5052927;28;20195;-46
2022/01/01 04:25:57;;;;;;;13.57;4.87;;;12.10;99.90;;;;;;5035051;28;20195;-45
2022/01/01 04:28:22;;;;;;;14.70;4.83;;;12.10;99.90;;;;;;5052936;28;20180;-44
2022/01/01 04:30:48;;;;;;;9.47;4.50;;;12.10;99.90;;;;;;5053096;28;20172;-45
2022/01/01 04:33:13;;;;;;;14.47;5.30;;;12.10;99.90;;;;;;5052891;28;20554;-47
2022/01/01 04:35:39;;;;;;;11.93;5.43;;;12.10;99.90;;;;;;5053815;28;20184;-46
2022/01/01 04:38:10;;;;;;;12.17;4.97;;;12.10;99.90;;;;;;5056620;28;20258;-45
2022/01/01 04:40:35;;;;;;;10.63;4.80;;;12.10;99.90;;;;;;5056820;28;20261;-45
2022/01/01 04:43:01;;;;;;;15.27;5.07;;;12.10;99.90;;;;;;5056616;28;20219;-47
2022/01/01 04:45:27;;;;;;;12.07;4.67;;;12.00;99.90;;;;;;5038594;28;20175;-46
2022/01/01 04:47:52;;;;;;;12.60;4.73;;;12.00;99.90;;;;;;5056457;28;20230;-46
2022/01/01 04:50:18;;;;;;;13.17;4.17;;;12.00;99.90;;;;;;5056389;28;20192;-46
2022/01/01 04:52:45;;;;;;;14.10;4.90;;;12.00;99.90;;;;;;5038493;28;20208;-46
2022/01/01 04:55:11;;;;;;;11.30;4.77;;;12.00;99.90;;;;;;5056628;28;20684;-46
2022/01/01 04:57:37;;;;;;;11.10;4.57;;;12.00;99.90;;;;;;5038907;28;20279;-46
2022/01/01 05:00:03;;;;;;;12.50;4.80;;;12.00;99.90;;;;;;5038298;28;20204;-45
2022/01/01 05:02:28;;;;;;;8.70;3.70;;;12.00;99.90;;;;;;5056251;28;20278;-47
2022/01/01 05:04:54;;;;;;;13.70;4.67;;;11.90;99.90;;;;;;5056128;28;20616;-48
2022/01/01 05:07:20;;;;;;;11.80;4.67;;;12.00;99.90;;;;;;5056057;28;20188;-46
2022/01/01 05:09:46;;;;;;;12.63;4.37;;;12.00;99.90;;;;;;5056070;28;20537;-48
2022/01/01 05:12:12;;;;;;;8.70;4.33;;;12.00;99.90;;;;;;5055981;28;20230;-46
2022/01/01 05:14:37;;;;;;;10.70;3.93;;;12.00;99.90;;;;;;5056226;28;20309;-46
2022/01/01 05:17:03;;;;;;;11.73;3.80;;;12.00;99.90;;;;;;5056517;28;20180;-46
2022/01/01 05:19:29;;;;;;;11.17;4.37;;;12.00;99.90;;;;;;5055856;28;20282;-46
2022/01/01 05:21:55;;;;;;;8.83;3.70;;;12.00;99.90;;;;;;5037956;28;20200;-45
2022/01/01 05:24:22;;;;;;;12.00;4.27;;;12.00;99.90;;;;;;5037827;28;20176;-46
2022/01/01 05:26:47;;;;;;;10.77;3.87;;;12.10;99.90;;;;;;5037750;28;20188;-46
2022/01/01 05:29:13;;;;;;;13.23;4.40;;;12.10;99.90;;;;;;5055828;28;20172;-45
2022/01/01 05:31:39;;;;;;;8.63;3.57;;;12.10;99.90;;;;;;5055610;28;20187;-45
2022/01/01 05:34:05;;;;;;;9.77;4.10;;;12.10;99.90;;;;;;5055882;28;20187;-45
2022/01/01 05:36:31;;;;;;;12.00;3.33;;;12.10;99.90;;;;;;5055606;28;20215;-45
2022/01/01 05:38:56;;;;;;;10.07;4.03;;;12.10;99.90;;;;;;5037452;28;20183;-46
2022/01/01 05:41:22;;;;;;;11.33;3.73;;;12.10;99.90;;;;;;5056260;28;20537;-47
2022/01/01 05:43:49;;;;;;;11.67;4.30;;;12.10;99.90;;;;;;5020990;28;20207;-47
2022/01/01 05:46:15;;;;;;;11.70;3.73;;;12.10;99.90;;;;;;5055340;28;20577;-47
2022/01/01 05:48:40;;;;;;;8.23;3.67;;;12.10;99.90;;;;;;5055092;28;20181;-46
2022/01/01 05:51:06;;;;;;;9.23;3.67;;;12.10;99.90;;;;;;5055303;28;20671;-45
2022/01/01 05:53:32;;;;;;;7.60;3.30;;;12.10;99.90;;;;;;5055296;28;20224;-46
2022/01/01 05:55:58;;;;;;;15.70;3.77;;;12.10;99.90;;;;;;5055428;28;20267;-46
2022/01/01 05:58:23;;;;;;;12.90;3.40;;;12.10;99.90;;;;;;5055204;28;20172;-48
2022/01/01 06:00:49;;;;;;;8.53;3.50;;;12.10;99.90;;;;;;5055369;28;20287;-45
2022/01/01 06:03:15;;;;;;;14.03;3.83;;;12.10;99.90;;;;;;5055357;28;20200;-46
2022/01/01 06:05:41;;;;;;;9.13;3.33;;;12.10;99.90;;;;;;5055649;28;20183;-46
2022/01/01 06:08:07;;;;;;;12.33;3.70;;;12.20;99.90;;;;;;5055182;28;20176;-46
2022/01/01 06:10:32;;;;;;;10.53;3.13;;;12.20;99.90;;;;;;5037204;28;20551;-46
2022/01/01 06:12:58;;;;;;;8.83;2.97;;;12.20;99.90;;;;;;5055186;28;20204;-47
2022/01/01 06:15:24;;;;;;;12.87;3.57;;;12.20;99.90;;;;;;5055133;28;20264;-47
2022/01/01 06:17:50;;;;;;;9.43;3.67;;;12.20;99.90;;;;;;5055292;28;20187;-46
2022/01/01 06:20:16;;;;;;;11.07;4.03;;;12.20;99.90;;;;;;5055163;28;20207;-47
2022/01/01 06:22:42;;;;;;;8.13;3.23;;;12.20;99.90;;;;;;5055200;28;20687;-46
2022/01/01 06:25:09;;;;;;;10.47;3.03;;;12.20;99.90;;;;;;5020883;28;20196;-47
2022/01/01 06:27:35;;;;;;;9.27;3.17;;;12.20;99.90;;;;;;5054974;28;20271;-47
2022/01/01 06:30:00;;;;;;;11.93;3.37;;;12.10;99.90;;;;;;5054825;28;20594;-45
2022/01/01 06:32:26;;;;;;;7.00;2.80;;;12.20;99.90;;;;;;5054786;28;20543;-46
2022/01/01 06:34:51;;;;;;;9.17;3.00;;;12.20;99.90;;;;;;5054535;28;20295;-47
2022/01/01 06:37:17;;;;;;;9.30;3.47;;;12.20;99.90;;;;;;5055197;28;20516;-46
2022/01/01 06:39:43;;;;;;;8.00;2.87;;;12.10;99.90;;;;;;5036973;28;20207;-47
2022/01/01 06:42:09;;;;;;;10.13;2.97;;;12.10;99.90;;;;;;5054479;28;20567;-47
2022/01/01 06:44:34;;;;;;;7.97;3.07;;;12.10;99.90;;;;;;5054517;28;20203;-46
2022/01/01 06:47:00;;;;;;;8.03;3.10;;;12.10;99.90;;;;;;5054478;28;20188;-47
2022/01/01 06:49:26;;;;;;;8.83;2.87;;;12.10;99.90;;;;;;5054441;28;20230;-44
2022/01/01 06:51:51;;;;;;;8.70;3.40;;;12.00;99.90;;;;;;5036357;28;20230;-46
2022/01/01 06:54:17;;;;;;;10.50;2.97;;;12.00;99.90;;;;;;5054509;28;20195;-47
2022/01/01 06:56:42;;;;;;;7.03;2.97;;;12.00;99.90;;;;;;5054267;28;20270;-47
2022/01/01 06:59:11;;;;;;;7.27;2.47;;;12.00;99.90;;;;;;5053750;28;20191;-46
2022/01/01 07:01:37;;;;;;;13.07;3.40;;;12.00;99.90;;;;;;5054065;28;20185;-47
2022/01/01 07:04:05;;;;;;;9.53;2.63;;;12.00;99.90;;;;;;5054689;28;20234;-48
2022/01/01 07:06:33;;;;;;;12.73;3.03;;;12.00;99.90;;;;;;5054436;28;20204;-46
2022/01/01 07:08:59;;;;;;;10.03;3.63;;;12.00;99.90;;;;;;5054533;28;20179;-46
2022/01/01 07:11:25;;;;;;;7.70;2.73;;;12.00;99.90;;;;;;5054032;28;20766;-46
2022/01/01 07:13:50;;;;;;;5.60;2.67;;;12.00;99.90;;;;;;5053904;28;20206;-46
2022/01/01 07:16:17;;;;;;;8.37;3.37;;;12.00;99.90;;;;;;5054033;28;20661;-47
2022/01/01 07:18:43;;;;;;;12.30;3.10;;;12.00;99.90;;;;;;5054107;28;20662;-46
2022/01/01 07:21:08;;;;;;;8.50;3.67;;;12.00;99.90;;;;;;5053938;28;20290;-46
2022/01/01 07:23:34;;;;;;;8.10;2.87;;;11.90;99.90;;;;;;5053871;28;20271;-47
2022/01/01 07:26:00;;;;;;;7.90;3.03;;;12.00;99.90;;;;;;5053714;28;20196;-45
2022/01/01 07:28:25;;;;;;;8.03;3.83;;;11.90;99.90;;;;;;5053770;28;20179;-46
2022/01/01 07:30:51;;;;;;;6.27;3.03;;;11.90;99.90;;;;;;5054000;28;20204;-47
2022/01/01 07:33:16;;;;;;;6.70;2.90;;;11.90;99.90;;;;;;5053893;28;20690;-47
2022/01/01 07:35:42;;;;;;;13.00;3.40;;;11.90;99.90;;;;;;5054029;28;20275;-47
2022/01/01 07:38:08;;;;;;;8.63;3.37;;;11.90;99.90;;;;;;5053744;28;20176;-47
2022/01/01 07:40:35;;;;;;;8.60;3.33;;;11.80;99.90;;;;;;5053869;28;20206;-47
2022/01/01 07:43:14;;;;;;;5.67;3.07;;;11.90;99.90;;;;;;5053957;28;20203;-47
2022/01/01 07:45:41;;;;;;;7.30;3.23;;;11.80;99.90;;;;;;5035919;28;20196;-46
2022/01/01 07:48:08;;;;;;;9.40;3.73;;;11.80;99.90;;;;;;5035596;28;20514;-45
2022/01/01 07:50:34;;;;;;;8.00;3.20;;;11.80;99.90;;;;;;5053530;28;20698;-46
2022/01/01 07:53:00;;;;;;;8.27;3.43;;;11.80;99.90;;;;;;5053249;28;20208;-47
2022/01/01 07:55:25;;;;;;;9.80;3.83;;;11.80;99.90;;;;;;5053512;28;20233;-47
2022/01/01 07:57:51;;;;;;;9.93;3.10;;;11.80;99.90;;;;;;5053602;28;20180;-46
2022/01/01 08:00:16;;;;;;;8.07;3.27;;;11.80;99.90;;;;;;5053824;28;20262;-47
2022/01/01 08:02:43;;;;;;;13.47;3.80;;;11.80;99.90;;;;;;5053328;28;20206;-46
2022/01/01 08:05:10;;;;;;;8.67;4.00;;;11.80;99.90;;;;;;5053517;28;20199;-46
2022/01/01 08:07:35;;;;;;;6.70;2.83;;;11.80;99.90;;;;;;5053608;28;20195;-47
2022/01/01 08:10:01;;;;;;;8.63;3.13;;;11.80;99.90;;;;;;5035338;28;20187;-46
2022/01/01 08:12:27;;;;;;;8.73;3.20;;;11.80;99.90;;;;;;5057352;28;20202;-49
2022/01/01 08:14:56;;;;;;;9.63;3.47;;;11.80;99.90;;;;;;5057530;28;20188;-47
2022/01/01 08:17:22;;;;;;;10.23;4.00;;;11.80;99.90;;;;;;5039213;28;20676;-47
2022/01/01 08:19:48;;;;;;;5.63;2.87;;;11.90;99.90;;;;;;5057562;28;20298;-46
2022/01/01 08:22:14;;;;;;;8.67;3.47;;;11.90;99.90;;;;;;5057256;28;20192;-46
2022/01/01 08:24:41;;;;;;;8.53;3.60;;;11.80;99.90;;;;;;5057474;28;20177;-48
2022/01/01 08:27:07;;;;;;;7.73;3.23;;;11.90;99.90;;;;;;5057367;28;20246;-46
2022/01/01 08:29:33;;;;;;;9.30;2.90;;;11.90;99.90;;;;;;5057168;28;20279;-47
2022/01/01 08:31:59;;;;;;;8.00;3.23;;;11.90;99.90;;;;;;5057051;28;20259;-48
2022/01/01 08:34:25;;;;;;;6.00;3.00;;;11.90;99.90;;;;;;5057536;28;20188;-46
2022/01/01 08:36:51;;;;;;;9.47;3.00;;;11.90;99.90;;;;;;5039174;28;20188;-48
2022/01/01 08:39:17;;;;;;;9.10;3.00;;;11.90;99.90;;;;;;5057092;28;20662;-48
2022/01/01 08:41:44;;;;;;;8.00;3.57;;;11.90;99.90;;;;;;5091832;22;20229;-47
2022/01/01 08:44:10;;;;;;;6.47;2.93;;;11.90;99.90;;;;;;5096800;28;20174;-47
2022/01/01 08:46:36;;;;;;;9.90;3.30;;;11.90;99.90;;;;;;5097149;28;20269;-47
2022/01/01 08:49:03;;;;;;;8.67;3.20;;;11.90;99.90;;;;;;5097289;28;20178;-49
2022/01/01 08:51:29;;;;;;;5.87;2.70;;;11.90;99.90;;;;;;5078354;28;20209;-46
2022/01/01 08:53:56;;;;;;;7.60;3.13;;;11.90;99.90;;;;;;5096909;28;20225;-49
2022/01/01 08:56:22;;;;;;;5.57;2.57;;;11.90;99.90;;;;;;5096685;28;20169;-48
2022/01/01 08:58:48;;;;;;;10.63;3.60;;;11.90;99.90;;;;;;5078389;28;20649;-47
2022/01/01 09:01:14;;;;;;;5.63;2.70;;;11.90;99.90;;;;;;5096737;28;20646;-49
2022/01/01 09:03:41;;;;;;;6.33;3.27;;;11.90;99.90;;;;;;5096637;28;20215;-49
2022/01/01 09:06:07;;;;;;;5.67;2.90;;;11.90;99.90;;;;;;5096333;28;20683;-49
2022/01/01 09:08:35;;;;;;;7.87;2.43;;;11.90;99.90;;;;;;5096483;28;20206;-50
2022/01/01 09:11:02;;;;;;;4.87;2.70;;;11.90;99.90;;;;;;5096733;28;20190;-41
2022/01/01 09:13:28;;;;;;;8.70;3.37;;;12.00;99.90;;;;;;5078007;28;20572;-43
2022/01/01 09:15:53;;;;;;;8.33;3.53;;;12.00;99.90;;;;;;5096941;28;20209;-45
2022/01/01 09:18:19;;;;;;;10.30;3.10;;;12.00;99.90;;;;;;5098164;28;20642;-41
2022/01/01 09:20:45;;;;;;;12.63;3.57;;;12.10;99.90;;;;;;5096755;28;20678;-43
2022/01/01 09:23:11;;;;;;;7.93;2.97;;;12.10;99.90;;;;;;5095196;28;20234;-44
2022/01/01 09:25:37;;;;;;;6.80;2.80;;;12.10;99.90;;;;;;5096345;28;20254;-39
2022/01/01 09:28:03;;;;;;;7.80;2.80;;;12.20;99.90;;;;;;5077805;28;20210;-42
2022/01/01 09:30:28;;;;;;;9.63;3.30;;;12.30;99.90;;;;;;5077692;28;20190;-41
2022/01/01 09:32:54;;;;;;;7.60;3.50;;;12.40;99.90;;;;;;5077654;28;20199;-42
2022/01/01 09:35:19;;;;;;;10.67;3.30;;;12.40;99.90;;;;;;5096124;28;20213;-44
2022/01/01 09:37:45;;;;;;;8.77;3.30;;;12.40;99.90;;;;;;5077661;28;20642;-42
2022/01/01 09:40:13;;;;;;;5.83;3.40;;;12.50;99.90;;;;;;5095684;28;20205;-44
2022/01/01 09:42:40;;;;;;;9.33;3.43;;;12.50;99.90;;;;;;5095585;28;20214;-42
2022/01/01 09:45:07;;;;;;;6.93;3.47;;;12.60;99.90;;;;;;5077506;28;20213;-42
2022/01/01 09:47:33;;;;;;;6.63;2.80;;;12.60;99.90;;;;;;5095963;28;20180;-43
2022/01/01 09:49:59;;;;;;;10.57;3.03;;;12.70;99.90;;;;;;5095679;28;20171;-41
2022/01/01 09:52:25;;;;;;;6.93;2.97;;;12.80;99.90;;;;;;5095454;28;20194;-44
2022/01/01 09:54:51;;;;;;;8.13;3.17;;;12.80;99.90;;;;;;5095867;28;20515;-43
2022/01/01 09:57:17;;;;;;;8.00;2.97;;;12.90;99.90;;;;;;5077371;28;20183;-42
2022/01/01 09:59:43;;;;;;;4.57;2.60;;;13.00;99.90;;;;;;5095411;28;20191;-44
2022/01/01 10:02:09;;;;;;;6.43;3.03;;;13.10;99.90;;;;;;5095567;28;20550;-42
2022/01/01 10:04:51;;;;;;;8.50;2.50;;;13.10;99.90;;;;;;5095184;28;20185;-43
2022/01/01 10:07:26;;;;;;;6.80;2.73;;;13.20;99.90;;;;;;5095884;28;20151;-42
2022/01/01 10:09:51;;;;;;;6.30;2.83;;;13.30;99.90;;;;;;5095191;28;20159;-43
2022/01/01 10:12:18;;;;;;;4.17;2.50;;;13.30;99.90;;;;;;5076895;28;20208;-42
2022/01/01 10:14:46;;;;;;;6.53;2.50;;;13.40;99.90;;;;;;5095077;28;20178;-43
2022/01/01 10:17:20;;;;;;;7.23;2.70;;;13.40;99.90;;;;;;5076907;28;20187;-41
2022/01/01 10:19:49;;;;;;;11.23;2.43;;;13.50;99.90;;;;;;5060096;28;20199;-41
2022/01/01 10:22:23;;;;;;;5.90;2.47;;;13.50;99.90;;;;;;5095746;28;20248;-42
2022/01/01 10:27:58;;;;;;;11.50;2.77;;;13.60;99.90;;;;;;5095279;28;20163;-43
2022/01/01 10:30:34;;;;;;;8.27;2.50;;;13.70;99.90;;;;;;5094951;28;20159;-45
2022/01/01 10:33:03;;;;;;;3.80;2.50;;;13.80;99.90;;;;;;5077265;28;20186;-42
2022/01/01 10:35:34;;;;;;;4.37;2.23;;;13.80;99.90;;;;;;5076469;28;20539;-42
2022/01/01 10:38:02;;;;;;;5.57;1.83;;;13.80;99.90;;;;;;5094991;28;20224;-41
2022/01/01 10:40:28;;;;;;;6.40;2.37;;;13.90;99.90;;;;;;5076307;28;20203;-43
2022/01/01 10:42:54;;;;;;;5.73;2.47;;;13.90;99.90;;;;;;5094359;28;20218;-43
2022/01/01 10:45:52;;;;;;;5.50;2.10;;;13.90;99.90;;;;;;5095014;28;20190;-43
2022/01/01 10:48:38;;;;;;;6.03;2.53;;;14.00;99.90;;;;;;5049949;28;20185;-42
2022/01/01 10:51:08;;;;;;;9.23;2.47;;;14.00;99.90;;;;;;5094438;28;20151;-44
2022/01/01 10:53:34;;;;;;;8.43;3.10;;;14.10;99.90;;;;;;5094326;28;20195;-41
2022/01/01 10:56:21;;;;;;;8.57;3.67;;;14.10;99.90;;;;;;5094609;28;20586;-44
2022/01/01 10:58:59;;;;;;;7.10;4.00;;;14.10;99.90;;;;;;5094454;28;20576;-41
2022/01/01 11:01:25;;;;;;;5.57;3.70;;;14.10;99.90;;;;;;5094439;28;20183;-43
2022/01/01 11:03:54;;;;;;;5.07;2.93;;;14.10;99.90;;;;;;5094121;28;20720;-42
2022/01/01 11:06:21;;;;;;;12.03;4.27;;;14.20;99.90;;;;;;5094406;28;20177;-43
2022/01/01 11:08:47;;;;;;;4.60;3.00;;;14.20;99.90;;;;;;5094074;28;20183;-46
2022/01/01 11:11:15;;;;;;;5.40;3.00;;;14.20;99.90;;;;;;5094101;28;20248;-41
2022/01/01 11:13:41;;;;;;;9.67;3.70;;;14.20;99.90;;;;;;5094030;28;20241;-44
2022/01/01 11:16:09;;;;;;;7.33;3.53;;;14.30;99.90;;;;;;5093940;28;20202;-44
2022/01/01 11:18:36;;;;;;;9.30;3.10;;;14.30;99.90;;;;;;5094222;28;20180;-43
2022/01/01 11:21:04;;;;;;;8.33;3.67;;;14.30;99.90;;;;;;5093767;28;20190;-43
2022/01/01 11:23:34;;;;;;;6.17;3.30;;;14.40;99.90;;;;;;5093948;28;20196;-42
2022/01/01 11:26:02;;;;;;;7.63;3.57;;;14.40;99.90;;;;;;5075624;28;20164;-44
2022/01/01 11:28:27;;;;;;;8.27;3.43;;;14.50;99.90;;;;;;5075608;28;20543;-45
2022/01/01 11:31:07;;;;;;;7.93;3.70;;;14.60;99.90;;;;;;5093732;28;20175;-40
2022/01/01 11:33:35;;;;;;;4.63;2.87;;;14.60;99.90;;;;;;5093746;28;20686;-48
2022/01/01 11:36:02;;;;;;;4.80;3.00;;;14.70;99.90;;;;;;5093631;28;20661;-50
2022/01/01 11:38:49;;;;;;;5.90;3.03;;;14.80;99.90;;;;;;5093647;28;20182;-46
2022/01/01 12:08:42;;;;;;;5.33;2.67;;;15.70;99.90;;;;;;5080346;28;20203;-47
2022/01/01 12:24:52;;;;;;;6.27;2.90;;;15.90;99.90;;;;;;5093484;28;20199;-49
2022/01/01 12:27:18;;;;;;;4.70;2.70;;;16.00;99.90;;;;;;5074928;28;20248;-46
2022/01/01 12:29:44;;;;;;;5.97;2.77;;;16.10;99.90;;;;;;5093146;28;20539;-47
2022/01/01 12:32:10;;;;;;;6.70;2.30;;;16.10;99.90;;;;;;5092974;28;20190;-47
2022/01/01 12:34:36;;;;;;;4.47;2.10;;;16.20;99.90;;;;;;5074905;28;20163;-49
2022/01/01 12:37:07;;;;;;;3.87;2.33;;;16.30;99.90;;;;;;5093292;28;20538;-49
2022/01/01 12:39:59;;;;;;;3.13;2.00;;;16.40;99.90;;;;;;5074804;28;20199;-48
2022/01/01 12:42:33;;;;;;;5.20;2.33;;;16.50;99.90;;;;;;5075411;28;20232;-48
2022/01/01 12:45:00;;;;;;;3.83;2.10;;;16.60;99.90;;;;;;5093059;28;20607;-48
2022/01/01 12:47:28;;;;;;;5.00;2.20;;;16.70;99.90;;;;;;5093122;28;20209;-49
2022/01/01 12:49:57;;;;;;;4.80;1.97;;;16.70;99.90;;;;;;5074794;28;20557;-48
2022/01/01 12:52:24;;;;;;;4.70;2.13;;;16.70;99.90;;;;;;5075053;28;20202;-46
2022/01/01 12:54:50;;;;;;;3.83;2.10;;;16.80;99.90;;;;;;5092704;28;20190;-47
2022/01/01 12:57:18;;;;;;;3.47;2.00;;;16.80;99.90;;;;;;5093169;28;20194;-47
2022/01/01 12:59:47;;;;;;;3.07;1.87;;;16.80;99.90;;;;;;5096743;28;20214;-47
2022/01/01 13:02:14;;;;;;;3.30;1.87;;;16.80;99.90;;;;;;5096727;28;20256;-48
2022/01/01 13:04:39;;;;;;;5.23;2.00;;;16.70;99.90;;;;;;5096494;28;20547;-48
2022/01/01 13:07:05;;;;;;;2.70;2.00;;;16.80;99.90;;;;;;5096669;28;20179;-48
2022/01/01 13:09:31;;;;;;;3.73;1.93;;;16.70;99.90;;;;;;5096710;28;20207;-47
2022/01/01 13:12:07;;;;;;;3.73;1.53;;;16.70;99.90;;;;;;5096295;28;20245;-48
2022/01/01 13:14:35;;;;;;;3.40;1.93;;;16.80;99.90;;;;;;5096389;28;20221;-49
2022/01/01 13:17:02;;;;;;;3.73;1.90;;;16.80;99.90;;;;;;5096506;28;20707;-47
2022/01/01 13:19:28;;;;;;;3.03;2.00;;;16.80;99.90;;;;;;5096386;28;20580;-49
2022/01/01 13:21:56;;;;;;;2.20;1.70;;;16.80;99.90;;;;;;5096044;28;20194;-49
2022/01/01 13:24:26;;;;;;;2.73;1.60;;;16.80;99.90;;;;;;5096139;28;20175;-48
2022/01/01 13:26:53;;;;;;;5.30;2.10;;;16.80;99.90;;;;;;5096084;28;20646;-48
2022/01/01 13:29:20;;;;;;;3.90;1.83;;;16.70;99.90;;;;;;5096280;28;20563;-47
2022/01/01 13:31:46;;;;;;;2.83;1.63;;;16.70;99.90;;;;;;5095955;28;20644;-48